Brightway — 9V8755 — position and weather

sailwx.info

Track history (hours):
 
Tides and Currents Weather Stations Pressure Air Temp Water Temp Dewpoint Dewpoint Depression Visibility Wind Speed Wind Dir Waves Ship Positions

Brightway

Last reported at 2015-Jul-29 03:19 UTC. Time now 2015-Aug-05 10:27 UTC.
Position N 27°05' W 015°16'.

Length 274 m; draft 9.5 m.

Type: Tanker. MMSI: 566422000.

Date/timePositionNaut miles runAvg speedWind from/ knotsBaromVisibWave heightAir tempDewpointWater temp
2015-Jul-29 03:19N 27°05' W 015°16'2612.9
2015-Jul-29 01:19N 27°31' W 015°15'1012.8
2015-Jul-29 00:33N 27°41' W 015°15'1313.3
2015-Jul-28 23:33N 27°54' W 015°14'1211.9
2015-Jul-28 22:33N 28°04' W 015°21'4 3.9
2015-Jul-28 21:26N 28°07' W 015°25'0 0.0
2015-Jul-28 20:23N 28°07' W 015°25'0 0.0
2015-Jul-28 19:29N 28°07' W 015°25'0 0.0
2015-Jul-28 18:29N 28°07' W 015°25'0 0.0
2015-Jul-28 17:32N 28°07' W 015°25'0 0.0
2015-Jul-28 16:32N 28°07' W 015°25'2 1.6
2015-Jul-28 15:33N 28°08' W 015°23'1 1.4
2015-Jul-28 14:30N 28°09' W 015°23'0 0.1
2015-Jul-28 13:33N 28°09' W 015°23'0 0.0
2015-Jul-28 12:33N 28°09' W 015°23'0 0.0
2015-Jul-28 11:33N 28°09' W 015°23'0 0.1
2015-Jul-28 10:33N 28°09' W 015°23'3 2.7
2015-Jul-28 09:33N 28°07' W 015°22'6 6.1
2015-Jul-28 08:33N 28°11' W 015°17'7 7.0
2015-Jul-28 07:33N 28°17' W 015°14'1212.3
2015-Jul-28 06:33N 28°29' W 015°10'1212.2
2015-Jul-28 05:33N 28°41' W 015°05'1212.2
2015-Jul-28 04:32N 28°52' W 015°01'1212.3
2015-Jul-28 03:33N 29°04' W 014°57'1212.4
2015-Jul-28 02:33N 29°16' W 014°52'1212.2
2015-Jul-28 01:33N 29°27' W 014°48'1212.0
2015-Jul-28 00:33N 29°39' W 014°43'1212.1
2015-Jul-27 23:33N 29°50' W 014°39'1212.0
2015-Jul-27 22:33N 30°02' W 014°35'1211.9
2015-Jul-27 21:33N 30°13' W 014°30'1211.7
2015-Jul-27 20:33N 30°24' W 014°26'1811.7
2015-Jul-27 19:03N 30°41' W 014°19'5811.9
2015-Jul-27 14:09N 31°36' W 013°58'29411.9
2015-Jul-26 13:32N 36°15' W 012°06'1512.5
2015-Jul-26 12:18N 36°29' W 012°00'1012.6
2015-Jul-26 11:29N 36°39' W 011°57'3712.4
2015-Jul-26 08:31N 37°15' W 011°47'1212.6
2015-Jul-26 07:33N 37°27' W 011°44'1312.7
2015-Jul-26 06:33N 37°39' W 011°41'1312.5
2015-Jul-26 05:33N 37°52' W 011°37'1212.6
2015-Jul-26 04:33N 38°04' W 011°34'1312.6
2015-Jul-26 03:33N 38°16' W 011°30'1312.6
2015-Jul-26 02:33N 38°29' W 011°28'1312.6
2015-Jul-26 01:33N 38°41' W 011°26'1212.3
2015-Jul-26 00:33N 38°53' W 011°23'1212.1
2015-Jul-25 23:33N 39°05' W 011°19'8 8.1
2015-Jul-25 22:33N 39°12' W 011°14'1212.1
2015-Jul-25 21:33N 39°24' W 011°11'1212.3
2015-Jul-25 20:33N 39°36' W 011°07'1212.4
2015-Jul-25 19:33N 39°48' W 011°04'1212.4
2015-Jul-25 18:33N 40°00' W 011°00'1212.2
2015-Jul-25 17:33N 40°12' W 010°57'1212.2
2015-Jul-25 16:33N 40°24' W 010°53'1512.1
2015-Jul-25 15:22N 40°38' W 010°49'  
2015-Jul-23 07:05N 49°49' W 003°27'712.4
2015-Jul-23 06:29N 49°52' W 003°17'1713.1
2015-Jul-23 05:09N 49°59' W 002°52'813.3
2015-Jul-23 04:33N 50°02' W 002°40'1412.8
2015-Jul-23 03:28N 50°05' W 002°19'3410.6
2015-Jul-23 00:16N 50°15' W 001°29'8 9.3
2015-Jul-22 23:22N 50°17' W 001°16'1010.0
2015-Jul-22 22:22N 50°20' W 001°01'1011.6
2015-Jul-22 21:32N 50°22' W 000°46'1312.2
2015-Jul-22 20:28N 50°26' W 000°26'1212.7
2015-Jul-22 19:33N 50°29' W 000°09'1312.7
2015-Jul-22 18:32N 50°32' E 000°11'1212.3
2015-Jul-22 17:34N 50°36' E 000°29'1211.7
2015-Jul-22 16:33N 50°41' E 000°45'1110.9
2015-Jul-22 15:33N 50°47' E 000°60'1010.3
2015-Jul-22 14:33N 50°53' E 001°13'1110.5
2015-Jul-22 13:34N 51°00' E 001°25'1312.5
2015-Jul-22 12:34N 51°09' E 001°39'1313.5
2015-Jul-22 11:34N 51°20' E 001°51'1313.1
2015-Jul-22 10:33N 51°31' E 002°02'1312.7
2015-Jul-22 09:33N 51°40' E 002°17'1411.8
2015-Jul-22 08:24N 51°50' E 002°32'2010.8
2015-Jul-22 06:32N 52°05' E 002°54'1110.3
2015-Jul-22 05:30N 52°13' E 003°06'1010.6
2015-Jul-22 04:33N 52°16' E 003°22'9 9.5
2015-Jul-22 03:33N 52°11' E 003°35'0 0.2
2015-Jul-22 02:17N 52°11' E 003°35'0 0.1
2015-Jul-22 01:29N 52°11' E 003°35'0 0.0
2015-Jul-22 00:32N 52°11' E 003°35'0 0.1
2015-Jul-21 23:29N 52°11' E 003°35'0 0.1
2015-Jul-21 22:32N 52°11' E 003°35'0 0.1
2015-Jul-21 21:29N 52°11' E 003°35'0 0.0
2015-Jul-21 20:29N 52°11' E 003°35'0 0.0
2015-Jul-21 19:32N 52°11' E 003°35'0 0.0
2015-Jul-21 18:29N 52°11' E 003°35'0 0.0
2015-Jul-21 17:32N 52°11' E 003°35'0 0.0
2015-Jul-21 16:32N 52°11' E 003°35'0 0.0
2015-Jul-21 15:32N 52°11' E 003°35'0 0.0
2015-Jul-21 14:32N 52°11' E 003°35'0 0.2
2015-Jul-21 13:32N 52°11' E 003°35'0 0.1
2015-Jul-21 12:32N 52°11' E 003°35'0 0.0
2015-Jul-21 11:32N 52°11' E 003°35'0 0.1
2015-Jul-21 10:29N 52°11' E 003°35'0 0.1
2015-Jul-21 09:23N 52°11' E 003°35'0 0.0
2015-Jul-21 07:20N 52°11' E 003°35'0 0.0
2015-Jul-21 05:11N 52°11' E 003°35'0 0.0
2015-Jul-21 04:11N 52°11' E 003°35'0 0.0
2015-Jul-21 03:29N 52°11' E 003°35'0 0.0
2015-Jul-21 01:23N 52°11' E 003°35'0 0.1
2015-Jul-21 00:32N 52°11' E 003°35'0 0.0
2015-Jul-20 23:23N 52°11' E 003°35'0 0.0
2015-Jul-20 20:29N 52°11' E 003°35'0 0.0
2015-Jul-20 19:23N 52°11' E 003°35'0 0.0
2015-Jul-20 14:20N 52°11' E 003°35'0 0.1
2015-Jul-20 13:32N 52°11' E 003°35'0 0.1
2015-Jul-20 12:32N 52°11' E 003°35'0 0.0
2015-Jul-20 11:17N 52°11' E 003°35'0 0.0
2015-Jul-20 10:32N 52°11' E 003°35'0 0.1
2015-Jul-20 09:26N 52°11' E 003°35'0 0.1
2015-Jul-20 07:32N 52°11' E 003°35'0 0.0
2015-Jul-20 06:26N 52°11' E 003°35'0 0.0
2015-Jul-20 05:26N 52°11' E 003°35'0 0.0
2015-Jul-20 04:32N 52°11' E 003°35'0 0.0
2015-Jul-20 03:32N 52°11' E 003°35'0 0.1
2015-Jul-20 02:32N 52°11' E 003°35'0 0.3
2015-Jul-20 01:32N 52°11' E 003°35'0 0.0
2015-Jul-20 00:32N 52°11' E 003°35'0 0.0
2015-Jul-19 23:29N 52°11' E 003°35'0 0.0
2015-Jul-19 22:26N 52°11' E 003°35'0 0.1
2015-Jul-19 21:23N 52°11' E 003°35'0 0.2
2015-Jul-19 20:26N 52°11' E 003°35'0 0.0
2015-Jul-19 18:26N 52°11' E 003°35'0 0.1
2015-Jul-19 17:23N 52°11' E 003°35'0 0.0
2015-Jul-19 16:29N 52°11' E 003°35'0 0.0
2015-Jul-19 15:11N 52°11' E 003°35'0 0.0
2015-Jul-19 13:23N 52°11' E 003°35'0 0.2
2015-Jul-19 12:29N 52°11' E 003°35'1 1.3
2015-Jul-19 11:33N 52°09' E 003°34'7 6.8
2015-Jul-19 10:33N 52°05' E 003°43'5 5.4
2015-Jul-19 09:33N 52°03' E 003°51'1010.1
2015-Jul-19 08:33N 51°59' E 004°06'8 8.4
2015-Jul-19 07:33N 51°54' E 004°17'2 1.6
2015-Jul-19 06:31N 51°53' E 004°19'0 0.0
2015-Jul-19 05:31N 51°53' E 004°19'0 0.0
2015-Jul-19 04:28N 51°53' E 004°19'  
Track history (hours):
 
Tides and Currents Weather Stations Pressure Air Temp Water Temp Dewpoint Dewpoint Depression Visibility Wind Speed Wind Dir Waves Ship Positions

Brightway

Last reported at 2015-Jul-29 03:19 UTC. Time now 2015-Aug-05 10:27 UTC.
Position N 27°05' W 015°16'.

Length 274 m; draft 9.5 m.

Type: Tanker. MMSI: 566422000.

Date/timePositionNaut miles runAvg speedWind from/ knotsBaromVisibWave heightAir tempDewpointWater temp
2015-Jul-29 03:19N 27°05' W 015°16'2612.9
2015-Jul-29 01:19N 27°31' W 015°15'1012.8
2015-Jul-29 00:33N 27°41' W 015°15'1313.3
2015-Jul-28 23:33N 27°54' W 015°14'1211.9
2015-Jul-28 22:33N 28°04' W 015°21'4 3.9
2015-Jul-28 21:26N 28°07' W 015°25'0 0.0
2015-Jul-28 20:23N 28°07' W 015°25'0 0.0
2015-Jul-28 19:29N 28°07' W 015°25'0 0.0
2015-Jul-28 18:29N 28°07' W 015°25'0 0.0
2015-Jul-28 17:32N 28°07' W 015°25'0 0.0
2015-Jul-28 16:32N 28°07' W 015°25'2 1.6
2015-Jul-28 15:33N 28°08' W 015°23'1 1.4
2015-Jul-28 14:30N 28°09' W 015°23'0 0.1
2015-Jul-28 13:33N 28°09' W 015°23'0 0.0
2015-Jul-28 12:33N 28°09' W 015°23'0 0.0
2015-Jul-28 11:33N 28°09' W 015°23'0 0.1
2015-Jul-28 10:33N 28°09' W 015°23'3 2.7
2015-Jul-28 09:33N 28°07' W 015°22'6 6.1
2015-Jul-28 08:33N 28°11' W 015°17'7 7.0
2015-Jul-28 07:33N 28°17' W 015°14'1212.3
2015-Jul-28 06:33N 28°29' W 015°10'1212.2
2015-Jul-28 05:33N 28°41' W 015°05'1212.2
2015-Jul-28 04:32N 28°52' W 015°01'1212.3
2015-Jul-28 03:33N 29°04' W 014°57'1212.4
2015-Jul-28 02:33N 29°16' W 014°52'1212.2
2015-Jul-28 01:33N 29°27' W 014°48'1212.0
2015-Jul-28 00:33N 29°39' W 014°43'1212.1
2015-Jul-27 23:33N 29°50' W 014°39'1212.0
2015-Jul-27 22:33N 30°02' W 014°35'1211.9
2015-Jul-27 21:33N 30°13' W 014°30'1211.7
2015-Jul-27 20:33N 30°24' W 014°26'1811.7
2015-Jul-27 19:03N 30°41' W 014°19'5811.9
2015-Jul-27 14:09N 31°36' W 013°58'29411.9
2015-Jul-26 13:32N 36°15' W 012°06'1512.5
2015-Jul-26 12:18N 36°29' W 012°00'1012.6
2015-Jul-26 11:29N 36°39' W 011°57'3712.4
2015-Jul-26 08:31N 37°15' W 011°47'1212.6
2015-Jul-26 07:33N 37°27' W 011°44'1312.7
2015-Jul-26 06:33N 37°39' W 011°41'1312.5
2015-Jul-26 05:33N 37°52' W 011°37'1212.6
2015-Jul-26 04:33N 38°04' W 011°34'1312.6
2015-Jul-26 03:33N 38°16' W 011°30'1312.6
2015-Jul-26 02:33N 38°29' W 011°28'1312.6
2015-Jul-26 01:33N 38°41' W 011°26'1212.3
2015-Jul-26 00:33N 38°53' W 011°23'1212.1
2015-Jul-25 23:33N 39°05' W 011°19'8 8.1
2015-Jul-25 22:33N 39°12' W 011°14'1212.1
2015-Jul-25 21:33N 39°24' W 011°11'1212.3
2015-Jul-25 20:33N 39°36' W 011°07'1212.4
2015-Jul-25 19:33N 39°48' W 011°04'1212.4
2015-Jul-25 18:33N 40°00' W 011°00'1212.2
2015-Jul-25 17:33N 40°12' W 010°57'1212.2
2015-Jul-25 16:33N 40°24' W 010°53'1512.1
2015-Jul-25 15:22N 40°38' W 010°49'  
2015-Jul-23 07:05N 49°49' W 003°27'712.4
2015-Jul-23 06:29N 49°52' W 003°17'1713.1
2015-Jul-23 05:09N 49°59' W 002°52'813.3
2015-Jul-23 04:33N 50°02' W 002°40'1412.8
2015-Jul-23 03:28N 50°05' W 002°19'3410.6
2015-Jul-23 00:16N 50°15' W 001°29'8 9.3
2015-Jul-22 23:22N 50°17' W 001°16'1010.0
2015-Jul-22 22:22N 50°20' W 001°01'1011.6
2015-Jul-22 21:32N 50°22' W 000°46'1312.2
2015-Jul-22 20:28N 50°26' W 000°26'1212.7
2015-Jul-22 19:33N 50°29' W 000°09'1312.7
2015-Jul-22 18:32N 50°32' E 000°11'1212.3
2015-Jul-22 17:34N 50°36' E 000°29'1211.7
2015-Jul-22 16:33N 50°41' E 000°45'1110.9
2015-Jul-22 15:33N 50°47' E 000°60'1010.3
2015-Jul-22 14:33N 50°53' E 001°13'1110.5
2015-Jul-22 13:34N 51°00' E 001°25'1312.5
2015-Jul-22 12:34N 51°09' E 001°39'1313.5
2015-Jul-22 11:34N 51°20' E 001°51'1313.1
2015-Jul-22 10:33N 51°31' E 002°02'1312.7
2015-Jul-22 09:33N 51°40' E 002°17'1411.8
2015-Jul-22 08:24N 51°50' E 002°32'2010.8
2015-Jul-22 06:32N 52°05' E 002°54'1110.3
2015-Jul-22 05:30N 52°13' E 003°06'1010.6
2015-Jul-22 04:33N 52°16' E 003°22'9 9.5
2015-Jul-22 03:33N 52°11' E 003°35'0 0.2
2015-Jul-22 02:17N 52°11' E 003°35'0 0.1
2015-Jul-22 01:29N 52°11' E 003°35'0 0.0
2015-Jul-22 00:32N 52°11' E 003°35'0 0.1
2015-Jul-21 23:29N 52°11' E 003°35'0 0.1
2015-Jul-21 22:32N 52°11' E 003°35'0 0.1
2015-Jul-21 21:29N 52°11' E 003°35'0 0.0
2015-Jul-21 20:29N 52°11' E 003°35'0 0.0
2015-Jul-21 19:32N 52°11' E 003°35'0 0.0
2015-Jul-21 18:29N 52°11' E 003°35'0 0.0
2015-Jul-21 17:32N 52°11' E 003°35'0 0.0
2015-Jul-21 16:32N 52°11' E 003°35'0 0.0
2015-Jul-21 15:32N 52°11' E 003°35'0 0.0
2015-Jul-21 14:32N 52°11' E 003°35'0 0.2
2015-Jul-21 13:32N 52°11' E 003°35'0 0.1
2015-Jul-21 12:32N 52°11' E 003°35'0 0.0
2015-Jul-21 11:32N 52°11' E 003°35'0 0.1
2015-Jul-21 10:29N 52°11' E 003°35'0 0.1
2015-Jul-21 09:23N 52°11' E 003°35'0 0.0
2015-Jul-21 07:20N 52°11' E 003°35'0 0.0
2015-Jul-21 05:11N 52°11' E 003°35'0 0.0
2015-Jul-21 04:11N 52°11' E 003°35'0 0.0
2015-Jul-21 03:29N 52°11' E 003°35'0 0.0
2015-Jul-21 01:23N 52°11' E 003°35'0 0.1
2015-Jul-21 00:32N 52°11' E 003°35'0 0.0
2015-Jul-20 23:23N 52°11' E 003°35'0 0.0
2015-Jul-20 20:29N 52°11' E 003°35'0 0.0
2015-Jul-20 19:23N 52°11' E 003°35'0 0.0
2015-Jul-20 14:20N 52°11' E 003°35'0 0.1
2015-Jul-20 13:32N 52°11' E 003°35'0 0.1
2015-Jul-20 12:32N 52°11' E 003°35'0 0.0
2015-Jul-20 11:17N 52°11' E 003°35'0 0.0
2015-Jul-20 10:32N 52°11' E 003°35'0 0.1
2015-Jul-20 09:26N 52°11' E 003°35'0 0.1
2015-Jul-20 07:32N 52°11' E 003°35'0 0.0
2015-Jul-20 06:26N 52°11' E 003°35'0 0.0
2015-Jul-20 05:26N 52°11' E 003°35'0 0.0
2015-Jul-20 04:32N 52°11' E 003°35'0 0.0
2015-Jul-20 03:32N 52°11' E 003°35'0 0.1
2015-Jul-20 02:32N 52°11' E 003°35'0 0.3
2015-Jul-20 01:32N 52°11' E 003°35'0 0.0
2015-Jul-20 00:32N 52°11' E 003°35'0 0.0
2015-Jul-19 23:29N 52°11' E 003°35'0 0.0
2015-Jul-19 22:26N 52°11' E 003°35'0 0.1
2015-Jul-19 21:23N 52°11' E 003°35'0 0.2
2015-Jul-19 20:26N 52°11' E 003°35'0 0.0
2015-Jul-19 18:26N 52°11' E 003°35'0 0.1
2015-Jul-19 17:23N 52°11' E 003°35'0 0.0
2015-Jul-19 16:29N 52°11' E 003°35'0 0.0
2015-Jul-19 15:11N 52°11' E 003°35'0 0.0
2015-Jul-19 13:23N 52°11' E 003°35'0 0.2
2015-Jul-19 12:29N 52°11' E 003°35'1 1.3
2015-Jul-19 11:33N 52°09' E 003°34'7 6.8
2015-Jul-19 10:33N 52°05' E 003°43'5 5.4
2015-Jul-19 09:33N 52°03' E 003°51'1010.1
2015-Jul-19 08:33N 51°59' E 004°06'8 8.4
2015-Jul-19 07:33N 51°54' E 004°17'2 1.6
2015-Jul-19 06:31N 51°53' E 004°19'0 0.0
2015-Jul-19 05:31N 51°53' E 004°19'0 0.0
2015-Jul-19 04:28N 51°53' E 004°19'  

Dump ship's entire track history